Flight Track Log - Related Links

Times and Time Zones

All times are in EDT time to prevent confusion due to time zone crossing. See the RLI811 flight status page for this flight to view local times or setup timezone preferences in your user account.


Time Position Orientation Groundspeed Altitude Reporting Facility
EDT Latitude Longitude Course Direction KTS MPH feet Rate Location/Type
Wed 12:00:00 PM 43.1704 -71.3096 39° Northeast  Level Estimated
Wed 12:01:00 PM 43.1580 -71.3790 256° West  Level FlightAware Approximate
Wed 12:02:00 PM 43.1971 -71.3318 38° Northeast  Level Estimated
Wed 12:03:00 PM 43.2479 -71.3157 13° North  Level FlightAware Approximate
Wed 12:04:00 PM 43.2986 -71.2996 13° North  Level FlightAware Approximate
Wed 12:05:00 PM 43.3494 -71.2835 13° North  Level FlightAware Approximate
Wed 12:06:00 PM 43.4001 -71.2674 13° North  Level FlightAware Approximate
Wed 12:07:00 PM 43.3674 -71.2544 50° Northeast  Level FlightAware Approximate
Wed 12:08:00 PM 43.4006 -71.1992 50° Northeast  Level FlightAware Approximate
Wed 12:09:00 PM 43.4338 -71.1440 50° Northeast  Level FlightAware Approximate
Wed 12:10:00 PM 43.4669 -71.0886 50° Northeast  Level FlightAware Approximate
Wed 12:11:00 PM 43.5001 -71.0332 46° Northeast  Level FlightAware Approximate
Wed 12:12:00 PM 43.5361 -70.9814 46° Northeast  Level FlightAware Approximate
Wed 12:13:00 PM 43.5721 -70.9294 46° Northeast  Level FlightAware Approximate
Wed 12:14:00 PM 43.6081 -70.8774 46° Northeast  Level FlightAware Approximate
Wed 12:15:00 PM 43.6440 -70.8254 46° Northeast  Level FlightAware Approximate
Wed 12:16:00 PM 43.6802 -70.7736 46° Northeast  Level FlightAware Approximate
Wed 12:17:00 PM 43.7164 -70.7219 46° Northeast  Level FlightAware Approximate
Wed 12:18:00 PM 43.7527 -70.6701 46° Northeast  Level FlightAware Approximate
Wed 12:19:00 PM 43.7897 -70.6193 44° Northeast  Level FlightAware Approximate
Wed 12:20:00 PM 43.8272 -70.5693 44° Northeast  Level FlightAware Approximate
Wed 12:21:00 PM 43.8648 -70.5193 44° Northeast  Level FlightAware Approximate
Wed 12:22:00 PM 43.9023 -70.4692 44° Northeast  Level FlightAware Approximate
Wed 12:23:00 PM 43.9393 -70.4183 45° Northeast  Level FlightAware Approximate
Wed 12:24:00 PM 43.9760 -70.3670 45° Northeast  Level FlightAware Approximate
Wed 12:25:00 PM 44.0122 -70.3150 47° Northeast  Level FlightAware Approximate
Wed 12:26:00 PM 44.0333 -70.2833 47° Northeast  Level FlightAware Approximate
Wed 12:27:00 PM 44.0485 -70.2835 47° Northeast  Level Estimated
Wed 12:28:00 PM 44.0485 -70.2835 47° Northeast  Level Estimated
Wed 12:29:00 PM 44.0485 -70.2835 47° Northeast  Level Estimated
Wed 12:30:00 PM 44.0485 -70.2835 47° Northeast  Level Estimated
Wed 12:31:00 PM 44.0485 -70.2835 47° Northeast  Level Estimated
Wed 12:32:00 PM 44.0485 -70.2835 47° Northeast  Level Estimated
Wed 12:33:00 PM 44.0485 -70.2835 47° Northeast  Level Estimated
Wed 12:34:00 PM 44.0485 -70.2835 47° Northeast  Level Estimated
Wed 12:35:00 PM 44.0485 -70.2835 47° Northeast  Level Estimated
Wed 12:36:00 PM 44.0485 -70.2835 47° Northeast  Level Estimated
Wed 12:37:00 PM 44.0485 -70.2835 47° Northeast  Level Estimated
Wed 12:38:00 PM 44.0485 -70.2835 47° Northeast  Level Estimated
Wed 12:39:00 PM 44.0485 -70.2835 47° Northeast  Level Estimated
Wed 12:40:00 PM 44.0485 -70.2835 47° Northeast  Level Estimated
Wed 12:41:00 PM 44.0485 -70.2835 47° Northeast  Level Estimated
Wed 12:42:00 PM 44.0485 -70.2835 47° Northeast  Level Estimated
Wed 12:43:00 PM 44.0485 -70.2835 47° Northeast  Level Estimated
Wed 12:44:00 PM 44.0485 -70.2835 47° Northeast  Level Estimated
Wed 12:45:00 PM 44.0485 -70.2835 47° Northeast  Level Estimated
Wed 12:46:00 PM 44.0485 -70.2835 47° Northeast  Level Estimated
Wed 12:47:00 PM 44.0485 -70.2835 47° Northeast  Level Estimated
Wed 12:48:00 PM 44.0485 -70.2835 47° Northeast  Level Estimated
Wed 12:49:00 PM 44.0485 -70.2835 47° Northeast  Level Estimated
Wed 12:50:00 PM 44.0485 -70.2835 47° Northeast  Level Estimated
Wed 12:51:00 PM 44.0485 -70.2835 47° Northeast  Level Estimated
Wed 12:52:00 PM 44.0485 -70.2835 47° Northeast  Level Estimated
Wed 12:53:00 PM 44.0485 -70.2835 47° Northeast  Level Estimated
Wed 12:54:00 PM 44.0485 -70.2835 47° Northeast  Level Estimated
Wed 12:55:00 PM 44.0485 -70.2835 47° Northeast  Level Estimated
Wed 12:56:00 PM 44.0485 -70.2835 47° Northeast  Level Estimated
Wed 12:57:00 PM 44.0485 -70.2835 47° Northeast  Level Estimated
Wed 12:58:00 PM 44.0485 -70.2835 47° Northeast  Level Estimated
Wed 12:59:00 PM 44.0485 -70.2835 47° Northeast  Level Estimated
Wed 01:00:00 PM 44.0485 -70.2835 47° Northeast  Level Estimated
Wed 01:01:00 PM 44.0485 -70.2835 47° Northeast  Level Estimated
Wed 01:02:00 PM 44.0485 -70.2835 47° Northeast  Level Estimated
Wed 01:03:00 PM 44.0485 -70.2835 47° Northeast  Level Estimated

Login

Don't have an account? Register now (free) for customized features, flight alerts, and more!